Time;durP1;ratioP1;P1;durP2;ratioP2;P2;SDS_P1;SDS_P2;PMS_P1;PMS_P2;Temp;Humidity;BMP_temperature;BMP_pressure;BME280_temperature;BME280_humidity;BME280_pressure;Samples;Min_cycle;Max_cycle;Signal;HPM_P1;HPM_P2
2023/01/26 00:01:24;;;;;;;22.20;17.60;;;;;;;-128.00;-1.00;-1.00;105064;1262;1007209;-70
2023/01/26 00:03:51;;;;;;;23.20;16.80;;;;;;;-128.00;-1.00;-1.00;104889;1263;1062911;-70
2023/01/26 00:06:19;;;;;;;21.80;17.10;;;;;;;-128.00;-1.00;-1.00;105049;1263;1004847;-70
2023/01/26 00:08:48;;;;;;;22.70;17.00;;;;;;;-128.00;-1.00;-1.00;105055;1263;1058213;-70
2023/01/26 00:11:18;;;;;;;21.30;16.50;;;;;;;-128.00;-1.00;-1.00;104924;1263;1045992;-70
2023/01/26 00:13:44;;;;;;;23.50;17.80;;;;;;;-128.00;-1.00;-1.00;105033;1263;1046774;-70
2023/01/26 00:16:14;;;;;;;23.00;18.50;;;;;;;-128.00;-1.00;-1.00;104963;1263;1004563;-71
2023/01/26 00:18:42;;;;;;;26.80;18.00;;;;;;;-128.00;-1.00;-1.00;104939;1263;1054529;-70
2023/01/26 00:21:27;;;;;;;24.00;17.90;;;;;;;-128.00;-1.00;-1.00;104849;1263;1006152;-71
2023/01/26 00:23:54;;;;;;;21.90;17.90;;;;;;;-128.00;-1.00;-1.00;105038;1264;1046263;-70
2023/01/26 00:26:25;;;;;;;21.50;17.00;;;;;;;-128.00;-1.00;-1.00;105069;1262;1004288;-71
2023/01/26 00:28:53;;;;;;;24.30;18.10;;;;;;;-128.00;-1.00;-1.00;105043;1263;1062952;-71
2023/01/26 00:31:22;;;;;;;27.20;20.40;;;;;;;-128.00;-1.00;-1.00;105043;1263;1004420;-72
2023/01/26 00:33:50;;;;;;;23.90;18.60;;;;;;;-128.00;-1.00;-1.00;104971;1263;1058906;-70
2023/01/26 00:36:17;;;;;;;25.00;19.30;;;;;;;-128.00;-1.00;-1.00;105023;1263;1004121;-70
2023/01/26 00:38:44;;;;;;;25.20;19.30;;;;;;;-128.00;-1.00;-1.00;104861;1264;1004875;-70
2023/01/26 00:44:03;;;;;;;29.00;20.80;;;;;;;-128.00;-1.00;-1.00;104866;1263;1055282;-70
2023/01/26 00:46:31;;;;;;;28.60;20.80;;;;;;;-128.00;-1.00;-1.00;105045;1263;1059654;-70
2023/01/26 00:48:59;;;;;;;27.40;20.40;;;;;;;-128.00;-1.00;-1.00;105060;1263;1005329;-69
2023/01/26 00:51:26;;;;;;;30.10;21.70;;;;;;;-128.00;-1.00;-1.00;105068;1262;1046589;-70
2023/01/26 00:53:52;;;;;;;27.70;20.60;;;;;;;-128.00;-1.00;-1.00;105045;1263;1005390;-70
2023/01/26 00:56:19;;;;;;;24.60;19.20;;;;;;;-128.00;-1.00;-1.00;104290;1262;1004251;-70
2023/01/26 00:58:46;;;;;;;29.60;21.00;;;;;;;-128.00;-1.00;-1.00;105069;1263;1004143;-70
2023/01/26 01:01:13;;;;;;;25.00;19.70;;;;;;;-128.00;-1.00;-1.00;105043;1264;1004119;-70
2023/01/26 01:03:39;;;;;;;24.80;19.50;;;;;;;-128.00;-1.00;-1.00;104881;1263;1003478;-70
2023/01/26 01:06:06;;;;;;;25.50;19.40;;;;;;;-128.00;-1.00;-1.00;105050;1263;1004815;-70
2023/01/26 01:08:32;;;;;;;27.40;20.00;;;;;;;-128.00;-1.00;-1.00;105053;1263;1005340;-70
2023/01/26 01:11:08;;;;;;;21.90;17.50;;;;;;;-128.00;-1.00;-1.00;105057;1262;1004116;-70
2023/01/26 01:13:35;;;;;;;26.60;19.40;;;;;;;-128.00;-1.00;-1.00;105066;1262;1045756;-71
2023/01/26 01:16:10;;;;;;;25.40;19.90;;;;;;;-128.00;-1.00;-1.00;105043;1263;1004558;-70
2023/01/26 01:18:37;;;;;;;26.40;19.70;;;;;;;-128.00;-1.00;-1.00;104825;1262;1062043;-70
2023/01/26 01:21:09;;;;;;;27.50;20.40;;;;;;;-128.00;-1.00;-1.00;104955;1263;1005962;-70
2023/01/26 01:23:37;;;;;;;27.40;21.20;;;;;;;-128.00;-1.00;-1.00;104883;1263;1060235;-69
2023/01/26 01:26:05;;;;;;;25.00;19.90;;;;;;;-128.00;-1.00;-1.00;105052;1263;1006054;-70
2023/01/26 01:28:32;;;;;;;25.40;19.40;;;;;;;-128.00;-1.00;-1.00;104967;1263;1005008;-70
2023/01/26 01:31:03;;;;;;;23.60;19.40;;;;;;;-128.00;-1.00;-1.00;104853;1262;1004550;-69
2023/01/26 01:33:29;;;;;;;29.00;20.80;;;;;;;-128.00;-1.00;-1.00;105048;1264;1056337;-69
2023/01/26 01:35:58;;;;;;;25.20;19.90;;;;;;;-128.00;-1.00;-1.00;105057;1262;1005363;-68
2023/01/26 01:38:26;;;;;;;31.70;21.10;;;;;;;-128.00;-1.00;-1.00;105023;1263;1045910;-70
2023/01/26 01:40:54;;;;;;;26.40;19.90;;;;;;;-128.00;-1.00;-1.00;105096;1262;1003767;-70
2023/01/26 01:43:21;;;;;;;27.10;20.40;;;;;;;-128.00;-1.00;-1.00;105056;1262;1004363;-70
2023/01/26 01:45:50;;;;;;;30.10;22.40;;;;;;;-128.00;-1.00;-1.00;104979;1263;1004323;-71
2023/01/26 01:48:23;;;;;;;28.70;21.00;;;;;;;-128.00;-1.00;-1.00;105021;1263;1061080;-70
2023/01/26 01:50:54;;;;;;;26.90;19.80;;;;;;;-128.00;-1.00;-1.00;105045;1262;1045659;-73
2023/01/26 01:53:26;;;;;;;26.60;21.10;;;;;;;-128.00;-1.00;-1.00;105029;1263;1047504;-72
2023/01/26 01:55:57;;;;;;;25.20;20.20;;;;;;;-128.00;-1.00;-1.00;105080;1263;1062506;-73
2023/01/26 01:58:25;;;;;;;26.50;21.20;;;;;;;-128.00;-1.00;-1.00;104767;1263;1056395;-71
2023/01/26 02:00:52;;;;;;;27.90;21.50;;;;;;;-128.00;-1.00;-1.00;104959;1262;1059781;-71
2023/01/26 02:03:20;;;;;;;30.10;21.40;;;;;;;-128.00;-1.00;-1.00;104944;1263;1003271;-71
2023/01/26 02:05:46;;;;;;;27.90;20.50;;;;;;;-128.00;-1.00;-1.00;104963;1263;1004764;-70
2023/01/26 02:08:17;;;;;;;32.10;23.40;;;;;;;-128.00;-1.00;-1.00;105049;1263;1005634;-70
2023/01/26 02:10:49;;;;;;;28.80;22.60;;;;;;;-128.00;-1.00;-1.00;105057;1263;1055040;-71
2023/01/26 02:13:18;;;;;;;30.90;22.60;;;;;;;-128.00;-1.00;-1.00;105041;1263;1060084;-70
2023/01/26 02:15:45;;;;;;;29.30;21.00;;;;;;;-128.00;-1.00;-1.00;105049;1263;1045134;-72
2023/01/26 02:18:12;;;;;;;29.70;22.70;;;;;;;-128.00;-1.00;-1.00;104832;1263;1004143;-73
2023/01/26 02:20:52;;;;;;;29.90;22.30;;;;;;;-128.00;-1.00;-1.00;105038;1262;1005104;-72
2023/01/26 02:23:34;;;;;;;29.40;21.20;;;;;;;-128.00;-1.00;-1.00;105063;1263;1055714;-72
2023/01/26 02:26:02;;;;;;;31.40;21.80;;;;;;;-128.00;-1.00;-1.00;104890;1262;1059400;-73
2023/01/26 02:28:29;;;;;;;28.70;20.90;;;;;;;-128.00;-1.00;-1.00;104890;1262;1004397;-72
2023/01/26 02:30:56;;;;;;;27.20;20.20;;;;;;;-128.00;-1.00;-1.00;105072;1262;1003765;-71
2023/01/26 02:33:26;;;;;;;27.20;20.90;;;;;;;-128.00;-1.00;-1.00;105055;1262;1003406;-72
2023/01/26 02:35:53;;;;;;;31.60;21.80;;;;;;;-128.00;-1.00;-1.00;105071;1263;1056644;-72
2023/01/26 02:38:22;;;;;;;29.30;22.20;;;;;;;-128.00;-1.00;-1.00;104947;1264;1004069;-69
2023/01/26 02:42:37;;;;;;;27.00;22.10;;;;;;;-128.00;-1.00;-1.00;104999;1262;1045727;-69
2023/01/26 02:44:03;;;;;;;26.70;20.20;;;;;;;-128.00;-1.00;-1.00;105049;1262;1047406;-70
2023/01/26 02:46:29;;;;;;;30.30;20.80;;;;;;;-128.00;-1.00;-1.00;104815;1263;1060318;-71
2023/01/26 02:51:41;;;;;;;26.70;20.50;;;;;;;-128.00;-1.00;-1.00;105049;1262;1058656;-72
2023/01/26 02:54:08;;;;;;;23.30;19.40;;;;;;;-128.00;-1.00;-1.00;105044;1262;1003984;-72
2023/01/26 02:56:40;;;;;;;27.70;20.50;;;;;;;-128.00;-1.00;-1.00;105039;1262;1003978;-72
2023/01/26 02:59:07;;;;;;;26.30;20.70;;;;;;;-128.00;-1.00;-1.00;105061;1262;1061900;-72
2023/01/26 03:01:34;;;;;;;29.90;21.20;;;;;;;-128.00;-1.00;-1.00;105045;1262;1004460;-72
2023/01/26 03:04:00;;;;;;;28.60;21.10;;;;;;;-128.00;-1.00;-1.00;105067;1262;1004241;-72
2023/01/26 03:06:27;;;;;;;26.80;21.50;;;;;;;-128.00;-1.00;-1.00;104926;1263;1003420;-73
2023/01/26 03:08:53;;;;;;;26.60;21.50;;;;;;;-128.00;-1.00;-1.00;105069;1262;1004126;-72
2023/01/26 03:11:20;;;;;;;32.30;22.90;;;;;;;-128.00;-1.00;-1.00;105044;1262;1003909;-73
2023/01/26 03:13:46;;;;;;;30.20;21.10;;;;;;;-128.00;-1.00;-1.00;105050;1262;1004484;-73
2023/01/26 03:16:17;;;;;;;27.30;19.00;;;;;;;-128.00;-1.00;-1.00;105043;1262;1003813;-72
2023/01/26 03:29:44;;;;;;;28.50;20.70;;;;;;;-128.00;-1.00;-1.00;105049;1262;1059063;-72
2023/01/26 03:32:12;;;;;;;28.20;20.60;;;;;;;-128.00;-1.00;-1.00;105030;1262;1004232;-72
2023/01/26 03:34:38;;;;;;;28.80;20.60;;;;;;;-128.00;-1.00;-1.00;104982;1263;1004252;-72
2023/01/26 03:37:05;;;;;;;28.80;20.30;;;;;;;-128.00;-1.00;-1.00;105084;1263;1003938;-72
2023/01/26 03:56:23;;;;;;;30.40;22.50;;;;;;;-128.00;-1.00;-1.00;104952;1262;1059105;-72
2023/01/26 03:58:52;;;;;;;28.90;21.20;;;;;;;-128.00;-1.00;-1.00;104923;1263;1045698;-72
2023/01/26 04:01:25;;;;;;;29.80;22.30;;;;;;;-128.00;-1.00;-1.00;104191;1263;1047044;-72
2023/01/26 04:09:26;;;;;;;30.30;21.60;;;;;;;-128.00;-1.00;-1.00;105029;1263;1060238;-72
2023/01/26 04:11:53;;;;;;;30.20;21.70;;;;;;;-128.00;-1.00;-1.00;104274;1263;1004002;-73
2023/01/26 04:22:39;;;;;;;31.90;23.10;;;;;;;-128.00;-1.00;-1.00;105057;1262;1059702;-72
2023/01/26 04:25:07;;;;;;;31.00;23.50;;;;;;;-128.00;-1.00;-1.00;105051;1263;1045507;-71
2023/01/26 04:27:34;;;;;;;30.60;23.60;;;;;;;-128.00;-1.00;-1.00;104770;1263;1047185;-72
2023/01/26 04:30:02;;;;;;;37.60;26.90;;;;;;;-128.00;-1.00;-1.00;105067;1262;1003499;-71
2023/01/26 04:32:29;;;;;;;34.90;26.30;;;;;;;-128.00;-1.00;-1.00;105020;1262;1004884;-71
2023/01/26 04:34:56;;;;;;;31.50;25.70;;;;;;;-128.00;-1.00;-1.00;105045;1262;1003877;-71
2023/01/26 04:37:23;;;;;;;33.40;25.70;;;;;;;-128.00;-1.00;-1.00;105016;1263;1005228;-72
2023/01/26 04:39:50;;;;;;;35.60;27.50;;;;;;;-128.00;-1.00;-1.00;105044;1262;1006483;-72
2023/01/26 04:42:16;;;;;;;32.70;23.40;;;;;;;-128.00;-1.00;-1.00;105069;1262;1004806;-72
2023/01/26 04:44:43;;;;;;;31.00;24.50;;;;;;;-128.00;-1.00;-1.00;105082;1262;1004295;-72
2023/01/26 04:47:10;;;;;;;40.20;32.20;;;;;;;-128.00;-1.00;-1.00;105037;1262;1004020;-72
2023/01/26 04:49:36;;;;;;;55.60;45.00;;;;;;;-128.00;-1.00;-1.00;105026;1262;1003989;-72
2023/01/26 04:52:03;;;;;;;58.20;48.90;;;;;;;-128.00;-1.00;-1.00;105047;1262;1004346;-71
2023/01/26 04:54:30;;;;;;;69.80;57.40;;;;;;;-128.00;-1.00;-1.00;105051;1262;1003771;-73
2023/01/26 04:56:57;;;;;;;52.50;42.30;;;;;;;-128.00;-1.00;-1.00;105044;1262;1003987;-71
2023/01/26 04:59:23;;;;;;;35.30;28.70;;;;;;;-128.00;-1.00;-1.00;105020;1262;1005153;-71
2023/01/26 05:01:50;;;;;;;37.50;29.20;;;;;;;-128.00;-1.00;-1.00;105022;1262;1004514;-72
2023/01/26 05:04:16;;;;;;;37.50;32.50;;;;;;;-128.00;-1.00;-1.00;104847;1263;1003815;-72
2023/01/26 05:06:43;;;;;;;32.80;26.00;;;;;;;-128.00;-1.00;-1.00;104934;1264;1004030;-71
2023/01/26 05:09:10;;;;;;;27.00;21.80;;;;;;;-128.00;-1.00;-1.00;103546;1262;1004979;-71
2023/01/26 05:11:36;;;;;;;27.60;21.90;;;;;;;-128.00;-1.00;-1.00;105019;1262;1003839;-72
2023/01/26 05:14:03;;;;;;;30.80;22.60;;;;;;;-128.00;-1.00;-1.00;105015;1262;1003881;-72
2023/01/26 05:16:30;;;;;;;28.70;21.10;;;;;;;-128.00;-1.00;-1.00;105083;1262;1004727;-72
2023/01/26 05:18:56;;;;;;;28.80;22.50;;;;;;;-128.00;-1.00;-1.00;104788;1263;1004810;-71
2023/01/26 05:21:24;;;;;;;29.30;21.40;;;;;;;-128.00;-1.00;-1.00;105043;1262;1004776;-72
2023/01/26 05:23:50;;;;;;;29.40;22.40;;;;;;;-128.00;-1.00;-1.00;104871;1263;1004244;-71
2023/01/26 05:26:17;;;;;;;23.70;19.10;;;;;;;-128.00;-1.00;-1.00;105050;1262;1004858;-71
2023/01/26 05:28:43;;;;;;;28.90;22.50;;;;;;;-128.00;-1.00;-1.00;104815;1262;1003978;-71
2023/01/26 05:31:10;;;;;;;31.30;22.20;;;;;;;-128.00;-1.00;-1.00;105030;1262;1004695;-71
2023/01/26 05:33:36;;;;;;;30.60;23.40;;;;;;;-128.00;-1.00;-1.00;105056;1262;1004081;-71
2023/01/26 05:36:05;;;;;;;32.40;21.70;;;;;;;-128.00;-1.00;-1.00;105048;1262;1004188;-72
2023/01/26 05:38:33;;;;;;;31.10;21.80;;;;;;;-128.00;-1.00;-1.00;104931;1263;1044659;-71
2023/01/26 05:40:59;;;;;;;34.50;22.90;;;;;;;-128.00;-1.00;-1.00;105084;1262;1004362;-72
2023/01/26 05:43:26;;;;;;;33.50;25.00;;;;;;;-128.00;-1.00;-1.00;104872;1264;1004438;-72
2023/01/26 05:45:53;;;;;;;33.50;24.50;;;;;;;-128.00;-1.00;-1.00;105047;1262;1007526;-72
2023/01/26 05:48:19;;;;;;;31.80;25.30;;;;;;;-128.00;-1.00;-1.00;104791;1262;1004555;-71
2023/01/26 05:50:46;;;;;;;33.70;25.40;;;;;;;-128.00;-1.00;-1.00;105066;1262;1004277;-72
2023/01/26 05:53:13;;;;;;;30.60;24.20;;;;;;;-128.00;-1.00;-1.00;105064;1262;1005281;-71
2023/01/26 05:55:42;;;;;;;30.90;23.60;;;;;;;-128.00;-1.00;-1.00;105050;1262;1003135;-71
2023/01/26 05:58:08;;;;;;;30.60;21.30;;;;;;;-128.00;-1.00;-1.00;104935;1263;1005004;-72
2023/01/26 06:00:35;;;;;;;29.90;21.80;;;;;;;-128.00;-1.00;-1.00;105023;1262;1003610;-72
2023/01/26 06:03:02;;;;;;;31.00;22.90;;;;;;;-128.00;-1.00;-1.00;105056;1262;1003982;-73
2023/01/26 06:05:28;;;;;;;32.80;23.60;;;;;;;-128.00;-1.00;-1.00;104832;1263;1004306;-72
2023/01/26 06:07:55;;;;;;;32.90;23.70;;;;;;;-128.00;-1.00;-1.00;105041;1262;1005287;-72
2023/01/26 06:10:22;;;;;;;30.90;24.30;;;;;;;-128.00;-1.00;-1.00;105057;1262;1004157;-72
2023/01/26 06:12:48;;;;;;;30.20;22.30;;;;;;;-128.00;-1.00;-1.00;105030;1263;1004600;-72
2023/01/26 06:15:15;;;;;;;31.90;22.60;;;;;;;-128.00;-1.00;-1.00;105012;1262;1003986;-73
2023/01/26 06:17:41;;;;;;;30.40;22.00;;;;;;;-128.00;-1.00;-1.00;104802;1262;1004249;-73
2023/01/26 06:20:08;;;;;;;31.10;21.30;;;;;;;-128.00;-1.00;-1.00;105042;1262;1004232;-72
2023/01/26 06:22:35;;;;;;;27.90;21.70;;;;;;;-128.00;-1.00;-1.00;105045;1263;1003571;-72
2023/01/26 06:25:03;;;;;;;26.90;21.30;;;;;;;-128.00;-1.00;-1.00;105032;1262;1004235;-73
2023/01/26 06:27:29;;;;;;;31.20;21.60;;;;;;;-128.00;-1.00;-1.00;104955;1262;1004194;-72
2023/01/26 06:29:56;;;;;;;35.10;23.00;;;;;;;-128.00;-1.00;-1.00;105034;1263;1004250;-72
2023/01/26 06:32:24;;;;;;;34.80;23.90;;;;;;;-128.00;-1.00;-1.00;105061;1263;1003763;-73
2023/01/26 06:34:52;;;;;;;31.70;21.40;;;;;;;-128.00;-1.00;-1.00;105054;1262;1005005;-73
2023/01/26 06:37:18;;;;;;;30.00;21.50;;;;;;;-128.00;-1.00;-1.00;105041;1262;1004413;-72
2023/01/26 06:39:45;;;;;;;34.10;23.70;;;;;;;-128.00;-1.00;-1.00;105037;1262;1004199;-72
2023/01/26 06:42:12;;;;;;;33.20;24.80;;;;;;;-128.00;-1.00;-1.00;105023;1263;1004335;-72
2023/01/26 06:44:38;;;;;;;36.00;25.60;;;;;;;-128.00;-1.00;-1.00;105008;1262;1004133;-72
2023/01/26 06:47:06;;;;;;;34.70;25.00;;;;;;;-128.00;-1.00;-1.00;105061;1263;1004324;-72
2023/01/26 06:49:32;;;;;;;36.60;26.10;;;;;;;-128.00;-1.00;-1.00;104940;1263;1004074;-72
2023/01/26 06:52:18;;;;;;;40.30;27.10;;;;;;;-128.00;-1.00;-1.00;104799;1262;1004546;-72
2023/01/26 06:54:50;;;;;;;41.60;28.10;;;;;;;-128.00;-1.00;-1.00;104316;1262;1046846;-72
2023/01/26 06:57:17;;;;;;;39.00;26.70;;;;;;;-128.00;-1.00;-1.00;105061;1262;1061765;-73
2023/01/26 06:59:43;;;;;;;47.20;28.60;;;;;;;-128.00;-1.00;-1.00;105031;1262;1004173;-72
2023/01/26 07:02:17;;;;;;;42.60;27.20;;;;;;;-128.00;-1.00;-1.00;105028;1262;1004204;-72
2023/01/26 07:04:44;;;;;;;37.60;28.00;;;;;;;-128.00;-1.00;-1.00;105062;1262;1044769;-72
2023/01/26 07:07:11;;;;;;;38.40;25.60;;;;;;;-128.00;-1.00;-1.00;105066;1262;1004087;-71
2023/01/26 07:09:37;;;;;;;35.20;25.50;;;;;;;-128.00;-1.00;-1.00;105047;1262;1004873;-71
2023/01/26 07:12:04;;;;;;;31.80;23.10;;;;;;;-128.00;-1.00;-1.00;105028;1262;1004722;-72
2023/01/26 07:14:32;;;;;;;34.20;24.00;;;;;;;-128.00;-1.00;-1.00;104832;1263;1004346;-71
2023/01/26 07:16:58;;;;;;;32.10;22.20;;;;;;;-128.00;-1.00;-1.00;104940;1262;1004119;-71
2023/01/26 07:19:25;;;;;;;33.50;24.70;;;;;;;-128.00;-1.00;-1.00;105039;1262;1004450;-72
2023/01/26 07:21:51;;;;;;;36.30;24.90;;;;;;;-128.00;-1.00;-1.00;104851;1263;1003760;-71
2023/01/26 07:24:20;;;;;;;34.50;23.90;;;;;;;-128.00;-1.00;-1.00;105086;1262;1005006;-72
2023/01/26 07:26:47;;;;;;;34.90;24.30;;;;;;;-128.00;-1.00;-1.00;105033;1262;1059893;-71
2023/01/26 07:29:13;;;;;;;35.50;24.40;;;;;;;-128.00;-1.00;-1.00;105030;1262;1006969;-72
2023/01/26 07:31:40;;;;;;;34.80;24.30;;;;;;;-128.00;-1.00;-1.00;105032;1262;1003834;-71
2023/01/26 07:34:08;;;;;;;40.80;26.00;;;;;;;-128.00;-1.00;-1.00;105075;1262;1004536;-73
2023/01/26 07:36:34;;;;;;;33.60;23.90;;;;;;;-128.00;-1.00;-1.00;105061;1262;1004416;-72
2023/01/26 07:39:01;;;;;;;34.90;25.10;;;;;;;-128.00;-1.00;-1.00;105041;1262;1004152;-72
2023/01/26 07:41:27;;;;;;;32.30;24.00;;;;;;;-128.00;-1.00;-1.00;105032;1263;1005347;-72
2023/01/26 07:43:54;;;;;;;30.30;21.90;;;;;;;-128.00;-1.00;-1.00;105040;1262;1004617;-72
2023/01/26 07:46:21;;;;;;;30.60;21.80;;;;;;;-128.00;-1.00;-1.00;104274;1262;1005532;-72
2023/01/26 07:48:47;;;;;;;31.70;23.60;;;;;;;-128.00;-1.00;-1.00;105028;1262;1004595;-72
2023/01/26 07:51:14;;;;;;;31.50;24.00;;;;;;;-128.00;-1.00;-1.00;105007;1263;1004466;-73
2023/01/26 07:53:42;;;;;;;32.00;24.70;;;;;;;-128.00;-1.00;-1.00;105019;1262;1004542;-72
2023/01/26 07:56:14;;;;;;;35.70;25.30;;;;;;;-128.00;-1.00;-1.00;105067;1262;1003631;-73
2023/01/26 07:58:41;;;;;;;32.60;24.60;;;;;;;-128.00;-1.00;-1.00;104941;1262;1061460;-73
2023/01/26 08:01:11;;;;;;;33.60;23.50;;;;;;;-128.00;-1.00;-1.00;105071;1262;1003976;-71
2023/01/26 08:03:38;;;;;;;32.40;22.70;;;;;;;-128.00;-1.00;-1.00;104850;1263;1059668;-72
2023/01/26 08:06:07;;;;;;;34.80;23.50;;;;;;;-128.00;-1.00;-1.00;105060;1262;1003715;-72
2023/01/26 08:08:34;;;;;;;36.40;25.10;;;;;;;-128.00;-1.00;-1.00;104945;1263;1003573;-72
2023/01/26 08:11:01;;;;;;;34.20;23.40;;;;;;;-128.00;-1.00;-1.00;104648;1270;1004464;-72
2023/01/26 08:13:29;;;;;;;33.00;23.20;;;;;;;-128.00;-1.00;-1.00;105064;1262;1003947;-72
2023/01/26 08:16:04;;;;;;;29.20;24.00;;;;;;;-128.00;-1.00;-1.00;105047;1262;1004941;-72
2023/01/26 08:18:30;;;;;;;38.50;24.80;;;;;;;-128.00;-1.00;-1.00;105072;1262;1046096;-73
2023/01/26 08:20:57;;;;;;;31.10;23.80;;;;;;;-128.00;-1.00;-1.00;103363;1263;1004838;-72
2023/01/26 08:23:24;;;;;;;35.70;26.50;;;;;;;-128.00;-1.00;-1.00;105072;1262;1004444;-73
2023/01/26 08:25:50;;;;;;;32.80;24.50;;;;;;;-128.00;-1.00;-1.00;105041;1263;1004522;-72
2023/01/26 08:28:17;;;;;;;35.40;24.40;;;;;;;-128.00;-1.00;-1.00;104813;1262;1005937;-72
2023/01/26 08:30:44;;;;;;;40.10;26.90;;;;;;;-128.00;-1.00;-1.00;105031;1262;1005013;-72
2023/01/26 08:33:11;;;;;;;36.10;26.40;;;;;;;-128.00;-1.00;-1.00;105064;1262;1004693;-72
2023/01/26 08:35:37;;;;;;;37.60;25.30;;;;;;;-128.00;-1.00;-1.00;105043;1262;1004501;-72
2023/01/26 08:38:04;;;;;;;33.70;26.10;;;;;;;-128.00;-1.00;-1.00;105068;1262;1004665;-72
2023/01/26 08:40:30;;;;;;;31.60;23.40;;;;;;;-128.00;-1.00;-1.00;105040;1262;1004314;-72
2023/01/26 08:43:00;;;;;;;34.10;24.80;;;;;;;-128.00;-1.00;-1.00;105052;1262;1003731;-72
2023/01/26 08:45:28;;;;;;;37.40;25.70;;;;;;;-128.00;-1.00;-1.00;105092;1263;1047772;-73
2023/01/26 08:47:54;;;;;;;36.70;25.40;;;;;;;-128.00;-1.00;-1.00;104954;1263;1004833;-72
2023/01/26 08:50:21;;;;;;;37.50;25.80;;;;;;;-128.00;-1.00;-1.00;105037;1262;1004720;-72
2023/01/26 08:52:48;;;;;;;45.80;28.70;;;;;;;-128.00;-1.00;-1.00;105049;1262;1003955;-72
2023/01/26 08:55:14;;;;;;;33.60;25.50;;;;;;;-128.00;-1.00;-1.00;105055;1262;1004183;-72
2023/01/26 08:57:42;;;;;;;38.30;25.10;;;;;;;-128.00;-1.00;-1.00;105088;1262;1004043;-72
2023/01/26 09:00:09;;;;;;;38.40;26.60;;;;;;;-128.00;-1.00;-1.00;105044;1263;1004806;-72
2023/01/26 09:02:36;;;;;;;40.70;27.70;;;;;;;-128.00;-1.00;-1.00;105053;1262;1005059;-72
2023/01/26 09:05:30;;;;;;;42.70;27.80;;;;;;;-128.00;-1.00;-1.00;105059;1262;1004963;-72
2023/01/26 09:07:56;;;;;;;42.10;27.30;;;;;;;-128.00;-1.00;-1.00;105027;1263;1045261;-72
2023/01/26 09:10:24;;;;;;;36.10;24.70;;;;;;;-128.00;-1.00;-1.00;105044;1262;1004829;-72
2023/01/26 09:12:50;;;;;;;32.10;24.20;;;;;;;-128.00;-1.00;-1.00;105056;1262;1004660;-72
2023/01/26 09:15:17;;;;;;;30.00;21.80;;;;;;;-128.00;-1.00;-1.00;105083;1262;1004683;-72
2023/01/26 09:17:46;;;;;;;31.50;23.10;;;;;;;-128.00;-1.00;-1.00;104826;1263;1004259;-72
2023/01/26 09:20:13;;;;;;;38.00;25.40;;;;;;;-128.00;-1.00;-1.00;104963;1263;1045692;-71
2023/01/26 09:22:40;;;;;;;39.60;26.70;;;;;;;-128.00;-1.00;-1.00;104982;1263;1006827;-73
2023/01/26 09:25:07;;;;;;;33.20;24.80;;;;;;;-128.00;-1.00;-1.00;105085;1263;1004458;-72
2023/01/26 09:27:34;;;;;;;40.10;25.90;;;;;;;-128.00;-1.00;-1.00;105045;1262;1004272;-72
2023/01/26 09:30:01;;;;;;;35.40;25.30;;;;;;;-128.00;-1.00;-1.00;105028;1263;1004120;-72
2023/01/26 09:32:28;;;;;;;36.20;24.20;;;;;;;-128.00;-1.00;-1.00;105063;1263;1005091;-72
2023/01/26 09:34:55;;;;;;;34.10;26.50;;;;;;;-128.00;-1.00;-1.00;105050;1262;1003889;-72
2023/01/26 09:37:22;;;;;;;35.20;24.90;;;;;;;-128.00;-1.00;-1.00;105052;1262;1004988;-72
2023/01/26 09:39:48;;;;;;;37.60;25.80;;;;;;;-128.00;-1.00;-1.00;104072;1267;1003931;-72
2023/01/26 09:42:33;;;;;;;36.70;24.60;;;;;;;-128.00;-1.00;-1.00;105082;1262;1004670;-72
2023/01/26 09:45:12;;;;;;;31.10;23.20;;;;;;;-128.00;-1.00;-1.00;105043;1262;1045694;-72
2023/01/26 09:48:13;;;;;;;27.70;22.30;;;;;;;-128.00;-1.00;-1.00;105092;1262;1046556;-72
2023/01/26 09:51:23;;;;;;;34.30;23.60;;;;;;;-128.00;-1.00;-1.00;105085;1262;1061634;-72
2023/01/26 09:54:04;;;;;;;30.50;21.40;;;;;;;-128.00;-1.00;-1.00;104424;1270;1055931;-72
2023/01/26 09:56:32;;;;;;;28.40;21.40;;;;;;;-128.00;-1.00;-1.00;104439;1270;1059641;-73
2023/01/26 09:59:18;;;;;;;34.70;22.70;;;;;;;-128.00;-1.00;-1.00;104418;1270;1005015;-71
2023/01/26 10:02:00;;;;;;;31.40;22.20;;;;;;;-128.00;-1.00;-1.00;104304;1270;1047868;-71
2023/01/26 10:04:35;;;;;;;30.50;23.20;;;;;;;-128.00;-1.00;-1.00;104136;1270;1060719;-72
2023/01/26 10:07:10;;;;;;;28.90;22.30;;;;;;;-128.00;-1.00;-1.00;104411;1271;1054831;-72
2023/01/26 10:09:38;;;;;;;31.10;22.20;;;;;;;-128.00;-1.00;-1.00;104389;1270;1059313;-72
2023/01/26 10:12:23;;;;;;;32.30;20.10;;;;;;;-128.00;-1.00;-1.00;104415;1270;1004513;-73
2023/01/26 10:15:00;;;;;;;34.60;23.80;;;;;;;-128.00;-1.00;-1.00;104429;1271;1047013;-73
2023/01/26 10:17:34;;;;;;;36.20;23.40;;;;;;;-128.00;-1.00;-1.00;104325;1270;1061893;-72
2023/01/26 10:20:03;;;;;;;32.60;22.80;;;;;;;-128.00;-1.00;-1.00;104342;1270;1055136;-72
2023/01/26 10:22:50;;;;;;;42.10;32.40;;;;;;;-128.00;-1.00;-1.00;104438;1270;1059888;-72
2023/01/26 10:25:28;;;;;;;37.70;28.20;;;;;;;-128.00;-1.00;-1.00;104413;1270;1046788;-73
2023/01/26 10:27:55;;;;;;;37.30;28.90;;;;;;;-128.00;-1.00;-1.00;104321;1270;1046839;-73
2023/01/26 10:30:22;;;;;;;33.20;26.00;;;;;;;-128.00;-1.00;-1.00;104695;1262;1004376;-72
2023/01/26 10:32:51;;;;;;;36.40;28.10;;;;;;;-128.00;-1.00;-1.00;105034;1262;1004865;-72
2023/01/26 10:35:23;;;;;;;50.90;39.80;;;;;;;-128.00;-1.00;-1.00;104888;1263;1059308;-72
2023/01/26 10:37:51;;;;;;;41.70;30.40;;;;;;;-128.00;-1.00;-1.00;104926;1263;1045766;-73
2023/01/26 10:40:19;;;;;;;38.60;29.40;;;;;;;-128.00;-1.00;-1.00;105054;1262;1004438;-72
2023/01/26 10:42:57;;;;;;;33.50;23.30;;;;;;;-128.00;-1.00;-1.00;105007;1263;1004990;-72
2023/01/26 10:45:26;;;;;;;35.90;26.60;;;;;;;-128.00;-1.00;-1.00;105058;1262;1058227;-72
2023/01/26 10:48:03;;;;;;;31.50;24.20;;;;;;;-128.00;-1.00;-1.00;105046;1263;1060415;-72
2023/01/26 10:50:30;;;;;;;29.00;23.00;;;;;;;-128.00;-1.00;-1.00;105037;1263;1045604;-72
2023/01/26 10:53:00;;;;;;;32.80;23.50;;;;;;;-128.00;-1.00;-1.00;105055;1262;1005100;-73
2023/01/26 10:55:29;;;;;;;34.40;23.50;;;;;;;-128.00;-1.00;-1.00;105035;1263;1061158;-73
2023/01/26 10:57:56;;;;;;;30.80;23.90;;;;;;;-128.00;-1.00;-1.00;104931;1263;1055039;-73
2023/01/26 11:00:28;;;;;;;31.00;23.80;;;;;;;-128.00;-1.00;-1.00;105022;1262;1004170;-72
2023/01/26 11:03:15;;;;;;;36.90;27.40;;;;;;;-128.00;-1.00;-1.00;105034;1263;1045736;-72
2023/01/26 11:05:43;;;;;;;34.30;25.80;;;;;;;-128.00;-1.00;-1.00;105056;1263;1047594;-72
2023/01/26 11:08:34;;;;;;;32.60;24.80;;;;;;;-128.00;-1.00;-1.00;105058;1263;1061401;-72
2023/01/26 11:11:09;;;;;;;31.10;24.70;;;;;;;-128.00;-1.00;-1.00;104753;1263;1056359;-72
2023/01/26 11:13:36;;;;;;;36.60;25.40;;;;;;;-128.00;-1.00;-1.00;105013;1263;1059376;-72
2023/01/26 11:16:19;;;;;;;36.60;25.70;;;;;;;-128.00;-1.00;-1.00;104805;1262;1004589;-70
2023/01/26 11:19:02;;;;;;;33.00;25.10;;;;;;;-128.00;-1.00;-1.00;105030;1263;1046925;-72
2023/01/26 11:21:52;;;;;;;33.20;23.90;;;;;;;-128.00;-1.00;-1.00;105032;1262;1060999;-73
2023/01/26 11:24:25;;;;;;;37.20;26.50;;;;;;;-128.00;-1.00;-1.00;105040;1262;1056247;-72
2023/01/26 11:27:10;;;;;;;37.90;27.60;;;;;;;-128.00;-1.00;-1.00;105030;1263;1059621;-72
2023/01/26 11:29:36;;;;;;;40.80;27.40;;;;;;;-128.00;-1.00;-1.00;104791;1263;1047009;-72
2023/01/26 11:32:45;;;;;;;54.50;42.70;;;;;;;-128.00;-1.00;-1.00;105050;1263;1004833;-73
2023/01/26 11:35:27;;;;;;;56.40;42.70;;;;;;;-128.00;-1.00;-1.00;105033;1263;1061479;-73
2023/01/26 11:38:31;;;;;;;38.30;27.70;;;;;;;-128.00;-1.00;-1.00;105031;1263;1055630;-73
2023/01/26 11:41:04;;;;;;;40.30;27.20;;;;;;;-128.00;-1.00;-1.00;104376;1271;1059271;-73
2023/01/26 11:43:45;;;;;;;34.70;25.70;;;;;;;-128.00;-1.00;-1.00;104379;1270;1046215;-74
2023/01/26 11:46:28;;;;;;;34.20;25.00;;;;;;;-128.00;-1.00;-1.00;104440;1271;1047072;-72
2023/01/26 11:49:07;;;;;;;38.90;30.90;;;;;;;-128.00;-1.00;-1.00;104103;1271;1062479;-73
2023/01/26 11:51:39;;;;;;;41.00;29.90;;;;;;;-128.00;-1.00;-1.00;104379;1270;1057793;-71
2023/01/26 11:54:18;;;;;;;41.80;27.90;;;;;;;-128.00;-1.00;-1.00;104408;1271;1060743;-72
2023/01/26 11:56:52;;;;;;;43.80;32.30;;;;;;;-128.00;-1.00;-1.00;104384;1270;1046104;-73
2023/01/26 11:59:26;;;;;;;36.70;26.80;;;;;;;-128.00;-1.00;-1.00;104382;1270;1049029;-73
2023/01/26 12:02:00;;;;;;;37.20;27.80;;;;;;;-128.00;-1.00;-1.00;104326;1271;1061532;-73